Time;durP1;ratioP1;P1;durP2;ratioP2;P2;SDS_P1;SDS_P2;PMS_P1;PMS_P2;Temp;Humidity;BMP_temperature;BMP_pressure;BME280_temperature;BME280_humidity;BME280_pressure;Samples;Min_cycle;Max_cycle;Signal;HPM_P1;HPM_P2
2022/07/17 00:01:28;;;;;;;4.68;3.47;;;;;;;18.37;66.54;93835.22;5109640;28;20026;-41
2022/07/17 00:03:54;;;;;;;4.93;3.47;;;;;;;18.15;67.16;93825.97;5110356;28;20024;-41
2022/07/17 00:06:19;;;;;;;5.00;3.55;;;;;;;18.21;66.89;93831.28;5109879;28;20106;-41
2022/07/17 00:08:45;;;;;;;5.95;3.20;;;;;;;18.07;66.90;93824.66;5110405;28;20026;-41
2022/07/17 00:11:10;;;;;;;3.85;3.10;;;;;;;18.09;67.69;93836.72;5110211;28;20023;-40
2022/07/17 00:13:36;;;;;;;6.18;3.20;;;;;;;18.03;67.82;93833.50;5110331;28;20023;-41
2022/07/17 00:16:01;;;;;;;5.70;3.17;;;;;;;18.10;67.86;93838.19;5110539;28;20035;-41
2022/07/17 00:18:26;;;;;;;4.03;3.38;;;;;;;18.07;67.64;93833.78;5110636;27;20511;-41
2022/07/17 00:20:52;;;;;;;4.13;3.13;;;;;;;18.08;67.17;93846.41;5114720;28;20108;-42
2022/07/17 00:23:18;;;;;;;3.25;2.95;;;;;;;18.19;66.32;93843.03;5114637;28;20389;-42
2022/07/17 00:25:44;;;;;;;4.00;3.00;;;;;;;18.21;65.58;93845.25;5114494;28;20027;-41
2022/07/17 00:28:09;;;;;;;3.38;2.65;;;;;;;18.25;64.64;93850.41;5113241;28;20465;-43
2022/07/17 00:30:35;;;;;;;2.50;2.30;;;;;;;18.30;63.66;93841.00;5114093;27;20480;-42
2022/07/17 00:33:00;;;;;;;4.90;3.03;;;;;;;18.32;64.62;93852.31;5108233;28;20481;-42
2022/07/17 00:35:26;;;;;;;4.10;3.60;;;;;;;18.37;63.80;93845.66;5103212;28;20496;-41
2022/07/17 00:37:52;;;;;;;5.93;3.13;;;;;;;18.40;63.87;93850.81;5103544;28;20048;-41
2022/07/17 00:40:22;;;;;;;4.10;3.00;;;;;;;18.35;63.97;93853.91;5102390;28;20016;-40
2022/07/17 00:42:47;;;;;;;3.78;3.30;;;;;;;18.33;65.21;93845.38;5107670;28;20514;-41
2022/07/17 00:45:14;;;;;;;3.45;3.15;;;;;;;18.11;65.06;93853.63;5102247;28;20088;-40
2022/07/17 00:47:57;;;;;;;3.22;2.92;;;;;;;17.98;65.61;93856.13;5102138;28;20020;-41
2022/07/17 00:50:35;;;;;;;3.67;3.30;;;;;;;17.92;65.98;93852.91;5105112;28;20042;-40
2022/07/17 00:53:00;;;;;;;3.53;2.90;;;;;;;17.91;66.10;93857.75;5102271;28;20020;-40
2022/07/17 00:55:26;;;;;;;6.85;3.47;;;;;;;17.85;65.93;93862.16;5103108;28;20100;-42
2022/07/17 00:57:54;;;;;;;5.28;2.92;;;;;;;17.91;65.52;93871.00;5105934;28;20062;-42
2022/07/17 01:00:20;;;;;;;4.10;3.22;;;;;;;17.67;65.93;93863.63;5105406;28;20093;-43
2022/07/17 01:02:51;;;;;;;3.53;3.22;;;;;;;17.60;66.55;93865.22;5109051;28;20028;-42
2022/07/17 01:05:18;;;;;;;7.15;3.67;;;;;;;17.61;66.07;93863.88;5104191;28;20051;-42
2022/07/17 01:07:44;;;;;;;3.55;2.92;;;;;;;17.51;66.34;93874.31;5103214;28;20016;-42
2022/07/17 01:10:10;;;;;;;3.50;3.20;;;;;;;17.37;66.80;93862.03;5102665;28;20031;-43
2022/07/17 01:12:36;;;;;;;3.75;3.05;;;;;;;17.56;66.35;93872.56;5103920;28;20133;-45
2022/07/17 01:15:03;;;;;;;5.28;2.67;;;;;;;17.41;66.75;93857.50;5102842;28;20028;-44
2022/07/17 01:17:30;;;;;;;3.00;2.47;;;;;;;17.47;66.79;93862.81;5102656;28;21349;-43
2022/07/17 01:19:55;;;;;;;5.45;3.20;;;;;;;17.30;67.32;93863.63;5101871;28;20500;-44
2022/07/17 01:22:21;;;;;;;3.47;3.17;;;;;;;17.16;67.96;93864.63;5102653;28;20035;-43
2022/07/17 01:24:46;;;;;;;3.10;2.80;;;;;;;17.01;68.66;93865.59;5102654;28;20020;-43
2022/07/17 01:27:12;;;;;;;4.15;3.08;;;;;;;17.02;68.57;93866.34;5102814;28;20035;-42
2022/07/17 01:29:39;;;;;;;4.93;2.92;;;;;;;16.98;68.73;93874.41;5100224;28;20027;-44
2022/07/17 01:32:04;;;;;;;6.80;3.28;;;;;;;16.79;68.39;93861.09;5112416;28;20028;-43
2022/07/17 01:34:30;;;;;;;4.93;2.90;;;;;;;17.01;68.56;93867.66;5113292;28;20028;-42
2022/07/17 01:36:56;;;;;;;3.90;2.85;;;;;;;17.05;68.21;93868.69;5105470;28;20019;-41
2022/07/17 01:39:52;;;;;;;3.17;2.70;;;;;;;17.06;68.20;93872.22;5092204;28;20036;-42
2022/07/17 01:42:07;;;;;;;4.75;2.97;;;;;;;17.06;67.76;93872.97;5092451;28;20020;-41
2022/07/17 01:44:32;;;;;;;3.55;3.00;;;;;;;16.91;68.53;93870.41;5092409;28;20039;-41
2022/07/17 01:46:58;;;;;;;4.85;3.30;;;;;;;17.05;68.13;93877.06;5092692;28;20107;-40
2022/07/17 01:49:23;;;;;;;3.53;3.10;;;;;;;16.86;68.46;93870.66;5092296;28;20034;-40
2022/07/17 01:51:49;;;;;;;3.25;2.70;;;;;;;16.87;68.49;93878.44;5092398;28;20107;-40
2022/07/17 01:54:15;;;;;;;4.53;3.03;;;;;;;16.75;68.61;93863.56;5092482;28;20397;-41
2022/07/17 01:56:40;;;;;;;4.20;3.00;;;;;;;16.82;69.07;93871.09;5092209;28;20023;-40
2022/07/17 01:59:06;;;;;;;3.40;2.80;;;;;;;16.92;68.52;93869.06;5092406;28;20047;-40
2022/07/17 02:01:31;;;;;;;2.85;2.65;;;;;;;16.89;68.20;93866.72;5092334;28;20481;-40
2022/07/17 02:03:57;;;;;;;3.85;2.97;;;;;;;16.83;68.71;93869.06;5092078;28;20489;-40
2022/07/17 02:06:22;;;;;;;7.97;2.97;;;;;;;16.89;68.25;93853.50;5091978;28;20031;-40
2022/07/17 02:08:50;;;;;;;3.30;2.70;;;;;;;16.99;68.11;93859.13;5092250;28;20020;-40
2022/07/17 02:11:17;;;;;;;3.30;3.00;;;;;;;16.85;68.96;93858.75;5091681;28;20035;-40
2022/07/17 02:13:42;;;;;;;3.25;2.95;;;;;;;16.85;68.94;93846.91;5091864;28;20024;-40
2022/07/17 02:16:08;;;;;;;3.75;3.13;;;;;;;16.65;69.61;93862.78;5092047;28;20031;-40
2022/07/17 02:18:33;;;;;;;3.47;3.17;;;;;;;16.75;68.98;93855.19;5101873;28;20027;-40
2022/07/17 02:20:58;;;;;;;3.67;3.15;;;;;;;16.68;68.95;93862.38;5112423;28;20145;-40
2022/07/17 02:23:24;;;;;;;3.28;2.95;;;;;;;16.76;68.30;93853.16;5092819;28;20039;-43
2022/07/17 02:25:49;;;;;;;4.75;3.15;;;;;;;16.80;67.75;93859.03;5091826;28;20524;-42
2022/07/17 02:28:15;;;;;;;6.57;3.33;;;;;;;16.77;68.19;93855.34;5091450;28;20016;-43
2022/07/17 02:30:40;;;;;;;7.97;2.80;;;;;;;16.48;69.00;93849.59;5091854;28;20031;-44
2022/07/17 02:33:06;;;;;;;4.28;3.00;;;;;;;16.28;69.10;93848.03;5091733;28;20036;-44
2022/07/17 02:35:33;;;;;;;3.97;2.53;;;;;;;16.17;68.54;93831.81;5091314;28;20077;-45
2022/07/17 02:37:58;;;;;;;2.90;2.67;;;;;;;16.36;68.72;93856.28;5091181;28;20073;-42
2022/07/17 02:40:24;;;;;;;5.90;2.95;;;;;;;16.34;68.38;93851.28;5091224;28;20405;-41
2022/07/17 02:42:49;;;;;;;9.23;4.53;;;;;;;16.54;68.56;93860.53;5091167;28;20117;-40
2022/07/17 02:45:15;;;;;;;8.45;2.83;;;;;;;16.58;68.48;93872.00;5091196;28;20020;-41
2022/07/17 02:47:41;;;;;;;3.22;2.92;;;;;;;16.54;67.70;93864.06;5091115;28;20024;-41
2022/07/17 02:50:08;;;;;;;4.05;3.05;;;;;;;16.40;68.80;93871.25;5091360;28;20051;-43
2022/07/17 02:52:34;;;;;;;5.07;3.25;;;;;;;16.09;69.84;93863.88;5094629;28;20111;-45
2022/07/17 02:54:59;;;;;;;3.85;3.03;;;;;;;16.11;69.95;93872.38;5096416;28;20511;-41
2022/07/17 02:57:25;;;;;;;3.55;3.00;;;;;;;16.28;69.41;93875.16;5091294;28;20028;-42
2022/07/17 02:59:51;;;;;;;4.75;2.90;;;;;;;16.19;69.29;93879.34;5091227;28;20416;-43
2022/07/17 03:02:16;;;;;;;3.45;3.13;;;;;;;16.04;69.67;93892.69;5090930;28;20024;-42
2022/07/17 03:04:41;;;;;;;4.65;3.25;;;;;;;16.06;69.90;93876.88;5090870;28;20024;-41
2022/07/17 03:07:07;;;;;;;3.33;2.92;;;;;;;16.02;70.25;93887.72;5091152;28;20024;-42
2022/07/17 03:09:33;;;;;;;3.15;2.80;;;;;;;16.15;69.15;93894.97;5110301;28;20114;-42
2022/07/17 03:11:58;;;;;;;3.35;2.90;;;;;;;16.26;68.59;93900.81;5111400;28;20047;-41
2022/07/17 03:14:24;;;;;;;2.83;2.53;;;;;;;16.28;67.84;93889.81;5111065;28;20558;-40
2022/07/17 03:16:50;;;;;;;3.50;2.80;;;;;;;15.93;69.59;93897.47;5105042;28;20533;-40
2022/07/17 03:19:15;;;;;;;6.57;2.60;;;;;;;15.97;70.05;93897.03;5106577;28;20516;-40
2022/07/17 03:21:41;;;;;;;3.40;3.10;;;;;;;15.82;70.41;93897.94;5110953;28;20080;-41
2022/07/17 03:24:07;;;;;;;5.07;2.92;;;;;;;15.87;69.93;93901.78;5110947;28;20072;-40
2022/07/17 03:26:32;;;;;;;3.20;2.90;;;;;;;15.98;69.01;93890.16;5110911;28;20107;-41
2022/07/17 03:28:58;;;;;;;4.55;3.53;;;;;;;15.61;70.98;93905.22;5111141;28;20038;-40
2022/07/17 03:31:23;;;;;;;5.60;3.10;;;;;;;15.84;69.90;93895.31;5110967;28;20566;-40
2022/07/17 03:33:49;;;;;;;3.70;3.00;;;;;;;15.77;71.01;93900.94;5110796;28;20031;-40
2022/07/17 03:36:14;;;;;;;4.30;3.35;;;;;;;15.52;71.87;93916.97;5109426;28;20023;-44
2022/07/17 03:38:40;;;;;;;4.18;2.88;;;;;;;15.62;71.28;93907.41;5090421;28;20131;-41
2022/07/17 03:41:05;;;;;;;6.38;3.33;;;;;;;15.70;70.38;93912.91;5090233;28;20059;-42
2022/07/17 03:43:31;;;;;;;5.07;3.20;;;;;;;15.49;71.82;93926.44;5109541;28;20020;-43
2022/07/17 03:45:56;;;;;;;3.10;2.80;;;;;;;15.51;71.75;93915.47;5110884;28;20099;-43
2022/07/17 03:48:22;;;;;;;3.78;2.70;;;;;;;15.77;71.04;93920.44;5110860;28;20023;-43
2022/07/17 03:50:47;;;;;;;5.55;2.95;;;;;;;15.80;71.70;93924.88;5110481;28;20026;-41
2022/07/17 03:53:12;;;;;;;5.25;3.17;;;;;;;15.63;72.06;93924.84;5110034;28;20110;-41
2022/07/17 03:55:38;;;;;;;4.40;3.00;;;;;;;15.77;71.70;93935.09;5110525;28;20027;-41
2022/07/17 03:58:03;;;;;;;3.42;3.05;;;;;;;15.84;71.13;93939.13;5110067;28;20024;-40
2022/07/17 04:00:29;;;;;;;5.30;3.13;;;;;;;15.99;70.54;93927.84;5110027;28;20015;-40
2022/07/17 04:02:55;;;;;;;4.38;2.58;;;;;;;16.13;68.40;93919.91;5110703;28;20047;-41
2022/07/17 04:05:20;;;;;;;4.18;3.40;;;;;;;16.20;69.20;93933.72;5110427;28;20023;-41
2022/07/17 04:07:46;;;;;;;3.40;3.10;;;;;;;16.19;69.89;93931.53;5109173;28;20050;-41
2022/07/17 04:10:13;;;;;;;4.80;3.20;;;;;;;16.31;70.37;93940.84;5110335;28;20040;-41
2022/07/17 04:12:39;;;;;;;5.65;3.58;;;;;;;16.19;70.77;93937.09;5110435;28;20043;-40
2022/07/17 04:15:05;;;;;;;4.43;4.03;;;;;;;16.15;71.42;93943.09;5110295;28;20036;-40
2022/07/17 04:17:30;;;;;;;4.25;3.83;;;;;;;16.43;69.77;93942.59;5110216;28;20030;-40
2022/07/17 04:19:56;;;;;;;7.55;3.97;;;;;;;16.47;69.62;93942.16;5109275;28;20020;-40
2022/07/17 04:22:21;;;;;;;6.15;3.67;;;;;;;16.65;68.81;93946.44;5110303;28;20500;-41
2022/07/17 04:24:47;;;;;;;7.75;3.22;;;;;;;16.79;66.65;93950.31;5110335;28;20108;-40
2022/07/17 04:27:13;;;;;;;4.50;3.20;;;;;;;16.76;67.57;93945.91;5110184;28;20057;-40
2022/07/17 04:29:38;;;;;;;6.13;2.58;;;;;;;16.98;64.63;93947.66;5110477;28;20019;-43
2022/07/17 04:32:04;;;;;;;5.18;2.70;;;;;;;17.14;65.17;93954.50;5110134;28;20479;-42
2022/07/17 04:34:32;;;;;;;2.50;2.30;;;;;;;17.33;61.72;93962.22;5110434;28;20031;-43
2022/07/17 04:36:57;;;;;;;8.38;3.35;;;;;;;17.38;63.94;93964.00;5110171;28;20023;-42
2022/07/17 04:39:23;;;;;;;14.38;9.68;;;;;;;17.47;64.94;93965.38;5109969;28;20539;-43
2022/07/17 04:41:49;;;;;;;4.00;3.58;;;;;;;17.57;62.34;93966.16;5109035;28;20022;-42
2022/07/17 04:44:15;;;;;;;5.72;2.58;;;;;;;17.81;59.44;93965.19;5110155;28;20462;-42
2022/07/17 04:46:41;;;;;;;3.58;2.38;;;;;;;18.00;57.18;93966.00;5110140;28;20860;-44
2022/07/17 04:49:06;;;;;;;3.33;2.80;;;;;;;18.05;57.63;93964.22;5110356;28;20070;-43
2022/07/17 04:51:31;;;;;;;2.63;2.33;;;;;;;18.08;58.61;93965.88;5110050;28;20107;-43
2022/07/17 04:53:57;;;;;;;4.75;2.35;;;;;;;18.21;59.35;93973.09;5110000;28;20088;-43
2022/07/17 04:56:22;;;;;;;3.70;2.45;;;;;;;18.37;56.67;93969.41;5109408;28;20024;-40
2022/07/17 04:58:48;;;;;;;2.58;2.33;;;;;;;18.43;56.27;93972.66;5110253;28;20025;-40
2022/07/17 05:01:13;;;;;;;4.35;2.35;;;;;;;18.53;54.94;93973.44;5109925;28;20458;-40
2022/07/17 05:03:39;;;;;;;2.80;1.95;;;;;;;18.85;52.44;93972.22;5109860;28;20063;-42
2022/07/17 05:06:05;;;;;;;4.95;2.42;;;;;;;18.85;54.43;93980.63;5111474;28;20032;-42
2022/07/17 05:08:30;;;;;;;2.00;1.85;;;;;;;18.99;54.19;93978.84;5113465;28;20032;-42
2022/07/17 05:10:56;;;;;;;3.17;2.20;;;;;;;19.11;52.81;93979.69;5113239;28;20039;-42
2022/07/17 05:13:22;;;;;;;4.47;2.30;;;;;;;19.12;51.81;93975.59;5112202;28;20109;-42
2022/07/17 05:15:49;;;;;;;7.05;2.20;;;;;;;19.16;52.67;93987.06;5109490;28;20105;-40
2022/07/17 05:18:14;;;;;;;2.60;1.90;;;;;;;19.00;52.62;93963.50;5108360;28;20028;-40
2022/07/17 05:20:40;;;;;;;3.35;2.17;;;;;;;19.23;51.42;93991.03;5112844;28;20553;-41
2022/07/17 05:23:06;;;;;;;2.65;2.10;;;;;;;19.31;51.72;93995.13;5110805;28;20020;-41
2022/07/17 05:25:31;;;;;;;2.85;1.98;;;;;;;19.35;51.62;93995.44;5113377;28;20019;-40
2022/07/17 05:27:57;;;;;;;5.53;2.15;;;;;;;19.44;51.48;93991.13;5113315;28;20024;-39
2022/07/17 05:30:23;;;;;;;6.15;2.47;;;;;;;19.48;51.89;93992.16;5111495;28;20500;-41
2022/07/17 05:32:48;;;;;;;4.38;3.00;;;;;;;19.58;51.61;93992.09;5105880;28;20053;-40
2022/07/17 05:35:14;;;;;;;4.40;2.30;;;;;;;19.58;52.54;93992.09;5113241;28;20046;-40
2022/07/17 05:37:39;;;;;;;2.83;2.20;;;;;;;19.73;52.07;93999.44;5099442;28;20390;-40
2022/07/17 05:40:05;;;;;;;3.42;2.45;;;;;;;19.78;51.12;93989.97;5092780;28;20101;-40
2022/07/17 05:42:31;;;;;;;4.55;2.53;;;;;;;19.86;50.42;93993.34;5093515;28;20016;-41
2022/07/17 05:44:56;;;;;;;3.58;2.13;;;;;;;19.92;50.21;94000.09;5112778;28;20427;-41
2022/07/17 05:47:22;;;;;;;2.17;1.98;;;;;;;19.96;50.39;93991.97;5112804;28;20068;-42
2022/07/17 05:49:47;;;;;;;2.58;2.22;;;;;;;20.00;51.09;93997.84;5111700;28;20024;-43
2022/07/17 05:52:12;;;;;;;4.55;2.30;;;;;;;20.11;51.53;93999.25;5102332;28;20028;-43
2022/07/17 05:54:38;;;;;;;8.40;2.38;;;;;;;20.14;51.31;93987.56;5101507;28;20417;-41
2022/07/17 05:57:03;;;;;;;4.45;2.45;;;;;;;20.24;50.30;93990.34;5112846;28;20406;-40
2022/07/17 05:59:29;;;;;;;3.50;2.38;;;;;;;20.26;51.22;93996.81;5112533;28;20023;-42
2022/07/17 06:01:54;;;;;;;3.92;2.65;;;;;;;20.31;51.24;93998.56;5112016;28;20058;-40
2022/07/17 06:04:20;;;;;;;14.30;2.95;;;;;;;20.38;50.85;94000.44;5112682;28;20020;-41
2022/07/17 06:06:45;;;;;;;6.53;2.40;;;;;;;20.38;50.89;93999.69;5112468;28;20058;-40
2022/07/17 06:09:11;;;;;;;4.95;2.30;;;;;;;20.53;50.61;94004.19;5111661;28;20034;-40
2022/07/17 06:11:36;;;;;;;2.55;2.13;;;;;;;20.60;51.68;94003.97;5112013;28;20024;-40
2022/07/17 06:14:02;;;;;;;8.82;2.13;;;;;;;20.56;50.12;93998.09;5112201;28;20072;-40
2022/07/17 06:16:27;;;;;;;3.28;2.65;;;;;;;20.69;50.18;94008.78;5111731;27;20074;-40
2022/07/17 06:18:53;;;;;;;3.65;2.42;;;;;;;20.82;49.55;94008.22;5099221;28;20024;-39
2022/07/17 06:21:18;;;;;;;4.25;2.42;;;;;;;20.80;49.71;94012.97;5091679;28;20020;-39
2022/07/17 06:23:44;;;;;;;17.98;3.10;;;;;;;20.82;50.29;94007.50;5091633;28;20023;-39
2022/07/17 06:26:09;;;;;;;6.75;3.10;;;;;;;20.89;50.93;94007.28;5091883;28;20031;-40
2022/07/17 06:28:35;;;;;;;8.52;3.30;;;;;;;20.92;49.63;94010.97;5091523;28;20027;-41
2022/07/17 06:31:00;;;;;;;3.40;2.35;;;;;;;20.98;50.04;94003.69;5091763;28;20086;-39
2022/07/17 06:33:26;;;;;;;3.88;2.47;;;;;;;21.04;50.44;94015.31;5100391;28;20024;-40
2022/07/17 06:35:52;;;;;;;3.53;2.35;;;;;;;21.09;49.46;94005.78;5112113;28;20502;-40
2022/07/17 06:38:18;;;;;;;4.82;2.60;;;;;;;21.17;49.10;94014.00;5092673;28;20040;-39
2022/07/17 06:40:44;;;;;;;12.15;3.00;;;;;;;21.22;48.42;94010.13;5091348;28;20016;-39
2022/07/17 06:43:10;;;;;;;3.05;2.70;;;;;;;21.26;49.69;94010.38;5108347;28;20027;-40
2022/07/17 06:45:36;;;;;;;4.55;2.50;;;;;;;21.38;49.54;94018.81;5092324;28;20112;-42
2022/07/17 06:48:01;;;;;;;4.63;2.20;;;;;;;21.48;49.58;94025.09;5103599;28;20059;-43
2022/07/17 06:50:27;;;;;;;4.65;2.42;;;;;;;21.59;49.78;94025.09;5110298;28;20024;-44
2022/07/17 06:52:53;;;;;;;2.80;2.60;;;;;;;21.68;48.49;94021.47;5110381;28;20031;-41
2022/07/17 06:55:18;;;;;;;5.07;2.50;;;;;;;21.73;47.55;94023.19;5102356;28;20031;-43
2022/07/17 06:57:44;;;;;;;2.47;2.28;;;;;;;21.73;47.40;94016.81;5099103;28;20103;-41
2022/07/17 07:00:10;;;;;;;6.80;3.10;;;;;;;21.81;48.51;94029.31;5100133;28;20067;-41
2022/07/17 07:02:37;;;;;;;2.97;2.22;;;;;;;21.86;48.58;94030.31;5097241;28;20073;-42
2022/07/17 07:05:03;;;;;;;4.63;2.20;;;;;;;21.79;48.80;94026.38;5103423;28;20405;-42
2022/07/17 07:07:28;;;;;;;5.43;2.78;;;;;;;21.80;47.83;94018.69;5100813;28;20032;-42
2022/07/17 07:09:54;;;;;;;18.30;2.65;;;;;;;21.94;47.14;94032.91;5103129;28;20101;-41
2022/07/17 07:12:19;;;;;;;3.10;2.50;;;;;;;21.99;48.23;94035.34;5100731;28;20024;-43
2022/07/17 07:14:44;;;;;;;2.60;2.40;;;;;;;22.05;48.14;94032.88;5099670;28;20024;-41
2022/07/17 07:17:10;;;;;;;3.08;2.30;;;;;;;22.09;47.50;94021.16;5098758;28;20027;-41
2022/07/17 07:19:35;;;;;;;4.95;2.42;;;;;;;22.20;48.14;94021.16;5105560;28;20088;-42
2022/07/17 07:22:01;;;;;;;7.47;4.72;;;;;;;22.18;45.33;94020.28;5100764;28;20026;-42
2022/07/17 07:24:26;;;;;;;4.95;3.65;;;;;;;22.36;47.71;94022.13;5100708;28;20032;-42
2022/07/17 07:26:52;;;;;;;10.48;2.88;;;;;;;22.50;47.54;94017.31;5102964;28;20027;-42
2022/07/17 07:29:17;;;;;;;2.85;2.30;;;;;;;22.80;46.27;94026.09;5099533;28;20110;-38
2022/07/17 07:31:43;;;;;;;3.70;2.63;;;;;;;23.13;44.97;94013.25;5099918;28;20012;-39
2022/07/17 07:34:09;;;;;;;4.05;2.83;;;;;;;23.52;43.72;94021.06;5102752;28;20408;-40
2022/07/17 07:36:34;;;;;;;3.03;2.53;;;;;;;24.18;42.34;94018.31;5099694;28;20022;-40
2022/07/17 07:39:00;;;;;;;4.38;2.83;;;;;;;25.36;40.97;94029.28;5102366;28;20516;-40
2022/07/17 07:41:25;;;;;;;2.80;2.30;;;;;;;26.68;37.27;94028.31;5099195;28;20102;-40
2022/07/17 07:43:51;;;;;;;3.20;1.75;;;;;;;27.96;35.63;94035.75;5097348;28;20106;-40
2022/07/17 07:46:19;;;;;;;2.92;2.33;;;;;;;28.97;33.81;94034.59;5103796;28;20020;-40
2022/07/17 07:48:45;;;;;;;2.47;2.28;;;;;;;29.47;32.77;94027.06;5104140;28;20051;-39
2022/07/17 07:51:12;;;;;;;2.72;2.03;;;;;;;29.86;31.63;94041.16;5106806;28;20139;-41
2022/07/17 07:53:37;;;;;;;2.30;2.10;;;;;;;30.45;30.30;94052.22;5107770;28;20023;-41
2022/07/17 07:56:03;;;;;;;2.58;1.67;;;;;;;30.43;30.56;94054.28;5107720;28;20096;-41
2022/07/17 07:58:29;;;;;;;6.72;2.03;;;;;;;30.55;29.65;94057.50;5095216;28;20420;-41
2022/07/17 08:00:54;;;;;;;7.22;2.67;;;;;;;30.66;30.07;94053.53;5098051;28;20024;-40
2022/07/17 08:03:20;;;;;;;8.27;2.78;;;;;;;30.59;29.43;94049.06;5096878;28;20116;-40
2022/07/17 08:05:45;;;;;;;3.80;1.98;;;;;;;30.66;30.04;94056.38;5097553;28;20842;-40
2022/07/17 08:08:11;;;;;;;4.50;2.20;;;;;;;30.60;30.15;94051.22;5095281;28;20027;-41
2022/07/17 08:10:37;;;;;;;2.72;2.35;;;;;;;30.89;30.79;94058.50;5095327;28;20032;-40
2022/07/17 08:13:02;;;;;;;5.32;2.53;;;;;;;30.33;31.62;94051.88;5101793;28;20063;-40
2022/07/17 08:15:28;;;;;;;6.55;2.13;;;;;;;30.66;29.70;94050.69;5101395;28;20032;-41
2022/07/17 08:17:54;;;;;;;1.98;1.88;;;;;;;30.62;31.06;94051.28;5099202;28;20123;-41
2022/07/17 08:20:21;;;;;;;2.30;1.70;;;;;;;30.90;28.85;94056.38;5101815;28;20032;-42
2022/07/17 08:22:47;;;;;;;13.77;2.30;;;;;;;30.85;29.90;94057.63;5096514;28;20062;-39
2022/07/17 08:25:13;;;;;;;4.10;1.90;;;;;;;31.05;29.84;94056.09;5102353;28;20087;-41
2022/07/17 08:27:40;;;;;;;5.70;2.20;;;;;;;30.92;30.34;94053.56;5097978;28;20085;-41
2022/07/17 08:30:07;;;;;;;6.07;2.30;;;;;;;31.00;29.29;94059.50;5095993;28;20020;-41
2022/07/17 08:32:33;;;;;;;9.50;2.83;;;;;;;31.14;28.95;94062.75;5096864;28;20026;-39
2022/07/17 08:34:58;;;;;;;5.40;2.80;;;;;;;31.49;28.65;94064.41;5097111;28;20019;-40
2022/07/17 08:37:24;;;;;;;3.30;2.40;;;;;;;31.73;28.66;94051.44;5097483;28;20030;-42
2022/07/17 08:39:51;;;;;;;6.05;2.20;;;;;;;31.59;28.74;94048.25;5096872;28;20051;-41
2022/07/17 08:42:16;;;;;;;2.70;1.95;;;;;;;31.46;28.37;94071.44;5101286;28;20095;-41
2022/07/17 08:44:43;;;;;;;6.40;2.28;;;;;;;31.72;28.74;94064.28;5101158;28;20118;-41
2022/07/17 08:47:13;;;;;;;8.88;2.00;;;;;;;32.26;27.01;94069.84;5102150;28;20027;-41
2022/07/17 08:49:44;;;;;;;2.33;1.85;;;;;;;32.61;27.88;94063.50;5100838;28;20035;-41
2022/07/17 08:52:10;;;;;;;2.67;2.03;;;;;;;33.11;29.66;94067.44;5105072;28;20028;-41
2022/07/17 08:54:36;;;;;;;1.90;1.70;;;;;;;33.13;25.90;94058.16;5100320;28;20026;-42
2022/07/17 08:57:03;;;;;;;4.35;2.50;;;;;;;33.42;26.00;94060.09;5101869;28;20420;-41
2022/07/17 08:59:29;;;;;;;2.67;1.88;;;;;;;33.66;26.47;94054.13;5107315;28;20039;-42
2022/07/17 09:01:55;;;;;;;5.88;1.88;;;;;;;33.99;27.13;94056.09;5103091;28;20045;-41
2022/07/17 09:04:20;;;;;;;2.30;2.05;;;;;;;34.25;25.04;94063.00;5101840;28;20485;-41
2022/07/17 09:06:46;;;;;;;1.77;1.55;;;;;;;34.13;25.26;94065.66;5099614;28;20400;-41
2022/07/17 09:09:13;;;;;;;3.53;1.90;;;;;;;34.10;23.79;94057.72;5099967;28;20143;-42
2022/07/17 09:11:50;;;;;;;4.65;2.05;;;;;;;34.51;23.56;94059.78;5097193;28;20030;-42
2022/07/17 09:14:16;;;;;;;1.90;1.80;;;;;;;34.27;23.26;94063.03;5099333;28;20020;-42
2022/07/17 09:16:56;;;;;;;2.95;1.83;;;;;;;34.85;23.76;94054.50;5099706;28;20603;-41
2022/07/17 09:19:29;;;;;;;1.40;1.30;;;;;;;35.05;23.31;94056.94;5103216;28;20030;-42
2022/07/17 09:22:31;;;;;;;6.70;1.77;;;;;;;35.08;23.75;94058.41;5101665;28;20074;-42
2022/07/17 09:24:58;;;;;;;2.08;1.60;;;;;;;34.86;24.10;94055.25;5102167;28;20039;-41
2022/07/17 09:27:23;;;;;;;4.00;1.58;;;;;;;35.28;23.59;94055.03;5100094;27;20500;-42
2022/07/17 09:29:57;;;;;;;2.38;1.80;;;;;;;35.23;24.36;94056.41;5099644;28;20119;-41
2022/07/17 09:32:26;;;;;;;2.67;2.03;;;;;;;34.47;24.26;94059.72;5100570;28;20024;-41
2022/07/17 09:34:53;;;;;;;4.57;1.75;;;;;;;34.83;23.91;94051.63;5099838;28;20034;-42
2022/07/17 09:37:22;;;;;;;5.17;2.50;;;;;;;34.44;23.99;94063.25;5103378;28;20028;-44
2022/07/17 09:39:49;;;;;;;4.75;2.50;;;;;;;34.32;22.13;94058.06;5097329;28;20517;-43
2022/07/17 09:42:29;;;;;;;4.93;2.10;;;;;;;33.22;25.45;94057.63;5100367;28;20024;-42
2022/07/17 09:45:08;;;;;;;7.07;1.67;;;;;;;33.49;25.37;94062.41;5101578;28;20024;-43
2022/07/17 09:47:36;;;;;;;2.33;1.80;;;;;;;33.91;26.02;94061.69;5100942;28;20027;-41
2022/07/17 09:50:03;;;;;;;2.60;1.92;;;;;;;33.96;24.70;94063.94;5103611;28;20015;-42
2022/07/17 09:52:32;;;;;;;7.73;2.00;;;;;;;33.56;24.77;94074.72;5101435;28;20032;-42
2022/07/17 09:54:59;;;;;;;1.70;1.60;;;;;;;33.40;24.62;94068.66;5104227;28;20027;-42
2022/07/17 09:57:30;;;;;;;3.85;1.98;;;;;;;33.75;24.88;94067.88;5099350;28;20034;-44
2022/07/17 09:59:59;;;;;;;2.53;1.83;;;;;;;34.08;23.03;94066.31;5101472;28;20733;-42
2022/07/17 10:02:25;;;;;;;1.92;1.75;;;;;;;34.07;23.98;94074.16;5102157;28;20077;-41
2022/07/17 10:04:51;;;;;;;2.75;1.83;;;;;;;33.92;23.89;94066.72;5104858;28;20028;-41
2022/07/17 10:07:17;;;;;;;7.63;1.88;;;;;;;34.14;22.11;94072.13;5100168;28;20028;-41
2022/07/17 10:09:43;;;;;;;3.35;1.90;;;;;;;33.81;23.24;94073.72;5100369;28;20838;-42
2022/07/17 10:12:08;;;;;;;3.75;1.90;;;;;;;33.69;23.57;94073.53;5099525;28;20066;-42
2022/07/17 10:14:35;;;;;;;10.38;2.40;;;;;;;33.66;23.43;94069.16;5102647;28;20034;-43
2022/07/17 10:17:07;;;;;;;2.17;1.90;;;;;;;33.72;24.45;94074.28;5108004;28;20063;-43
2022/07/17 10:19:32;;;;;;;5.43;1.83;;;;;;;33.64;22.74;94080.59;5099549;28;20491;-42
2022/07/17 10:22:01;;;;;;;1.70;1.60;;;;;;;33.60;23.24;94072.66;5101783;28;20041;-42
2022/07/17 10:24:27;;;;;;;4.88;2.70;;;;;;;33.60;24.26;94066.94;5101118;28;20126;-42
2022/07/17 10:26:53;;;;;;;2.25;1.85;;;;;;;33.47;22.61;94067.38;5099763;28;20045;-42
2022/07/17 10:29:32;;;;;;;5.32;1.95;;;;;;;33.41;22.75;94067.25;5101335;28;20031;-43
2022/07/17 10:31:59;;;;;;;2.83;1.90;;;;;;;33.13;24.47;94073.19;5099864;28;20031;-42
2022/07/17 10:34:43;;;;;;;9.30;2.40;;;;;;;33.29;25.45;94070.63;5102354;28;20059;-42
2022/07/17 10:37:22;;;;;;;4.13;2.53;;;;;;;33.26;25.20;94074.88;5100760;28;20513;-42
2022/07/17 10:39:59;;;;;;;2.35;1.80;;;;;;;33.05;25.50;94067.28;5100010;28;20100;-41
2022/07/17 10:42:50;;;;;;;2.70;2.20;;;;;;;33.25;24.48;94067.69;5102392;28;20030;-42
2022/07/17 10:45:43;;;;;;;5.90;1.98;;;;;;;33.19;25.31;94063.97;5103040;28;20398;-40
2022/07/17 10:48:09;;;;;;;7.25;1.85;;;;;;;32.99;24.90;94054.97;5097712;28;20059;-43
2022/07/17 10:50:36;;;;;;;2.75;1.92;;;;;;;33.17;25.68;94061.81;5101744;28;20585;-41
2022/07/17 10:53:08;;;;;;;2.95;1.88;;;;;;;32.92;24.12;94062.72;5101693;28;20035;-42
2022/07/17 10:55:36;;;;;;;4.95;1.73;;;;;;;32.66;25.64;94065.06;5099927;28;20031;-42
2022/07/17 10:58:02;;;;;;;3.00;2.10;;;;;;;32.64;27.68;94057.13;5099127;28;20023;-42
2022/07/17 11:00:28;;;;;;;3.50;2.33;;;;;;;32.66;25.21;94057.19;5099603;28;20028;-42
2022/07/17 11:02:54;;;;;;;2.47;2.22;;;;;;;32.42;25.46;94053.06;5100773;28;20026;-42
2022/07/17 11:05:19;;;;;;;2.08;1.88;;;;;;;32.18;27.32;94047.53;5101383;28;20699;-41
2022/07/17 11:07:50;;;;;;;2.55;2.25;;;;;;;32.42;27.05;94047.34;5099923;28;20027;-41
2022/07/17 11:10:16;;;;;;;4.28;1.80;;;;;;;32.49;26.32;94057.50;5100415;28;20084;-44
2022/07/17 11:12:41;;;;;;;4.18;2.47;;;;;;;32.63;28.47;94049.97;5100615;28;20020;-42
2022/07/17 11:15:07;;;;;;;2.85;2.50;;;;;;;32.88;27.45;94034.03;5098211;28;20544;-41
2022/07/17 11:17:34;;;;;;;2.72;1.90;;;;;;;32.88;25.15;94023.31;5098895;28;20760;-42
2022/07/17 11:20:01;;;;;;;1.88;1.67;;;;;;;32.67;26.20;94032.91;5100891;28;20023;-43
2022/07/17 11:22:27;;;;;;;3.65;1.83;;;;;;;31.88;26.20;94033.25;5098527;28;20028;-42
2022/07/17 11:24:53;;;;;;;3.08;2.20;;;;;;;31.51;27.90;94047.31;5101668;28;20023;-42
2022/07/17 11:27:26;;;;;;;2.53;2.10;;;;;;;31.26;25.95;94023.84;5097910;28;20107;-42
2022/07/17 11:29:53;;;;;;;3.50;2.28;;;;;;;31.38;28.75;94027.00;5102549;28;20398;-41
2022/07/17 11:32:19;;;;;;;3.33;2.42;;;;;;;31.39;29.76;94025.59;5099214;28;20027;-41